Horta Airport Horta PT
ICAO: LPHR
IATA: HOR
Category: Medium
Scheduled Services: Yes

Elevation: 118 ft
TransAlt. 5000 ft.

Airport Communications:
APP:119.7
TWR:118

LPHR Zoom In..

Runways:

(A) RW 10 length 5233 ft width 148 ft
---- / hdg 102

(B) RW 28 length 5233 ft width 148 ft
---- / hdg 282

Location; LPHR
Day. 21 / Time. 21.00 Zulu
* QNH: 1006
* Temperature: 15° c. 59°f.
* Wind from: 060° Speed 12 kn.
Dewpoint: 12° c.
Visibility: 9000 m.
Clouds: Scattered 1200 ft.
Clouds: Few 1600 ft.
Clouds: Scattered 7000 ft.

LPHR 212100Z 06012KT 9000 VCSH SCT012 FEW016CB SCT070 15/12 Q1006


Wind From 060°
Speed 12 kn.

YouTube Music Video
 
jpsmedia.com for Web Design  worldairports.se 2018   terms of use